Time;durP1;ratioP1;P1;durP2;ratioP2;P2;SDS_P1;SDS_P2;PMS_P1;PMS_P2;Temp;Humidity;BMP_temperature;BMP_pressure;BME280_temperature;BME280_humidity;BME280_pressure;Samples;Min_cycle;Max_cycle;Signal;HPM_P1;HPM_P2
2022/06/14 00:01:05;;;;;;;6.12;4.17;;;;;;;22.24;50.99;98997.65;1759275;80;21432;-66
2022/06/14 00:03:39;;;;;;;5.00;4.28;;;;;;;22.22;51.34;98996.46;1766256;80;21466;-66
2022/06/14 00:06:10;;;;;;;4.47;4.08;;;;;;;22.19;51.26;98998.61;1754871;80;21446;-66
2022/06/14 00:08:37;;;;;;;4.70;4.08;;;;;;;22.15;51.56;99002.09;1755067;80;21885;-65
2022/06/14 00:11:14;;;;;;;4.30;4.00;;;;;;;22.09;51.86;98992.84;1698291;82;21524;-68
2022/06/14 00:13:41;;;;;;;5.05;4.15;;;;;;;22.05;52.26;98991.98;1759211;80;21007;-64
2022/06/14 00:16:08;;;;;;;9.18;4.47;;;;;;;22.01;51.92;98991.95;1756295;80;21459;-64
2022/06/14 00:18:36;;;;;;;4.58;4.20;;;;;;;21.94;52.12;98991.72;1750813;80;21406;-65
2022/06/14 00:21:04;;;;;;;4.35;3.98;;;;;;;21.92;52.56;98987.02;1744239;80;21850;-65
2022/06/14 00:23:31;;;;;;;3.80;3.50;;;;;;;21.87;52.61;98986.16;1746183;80;21538;-66
2022/06/14 00:25:59;;;;;;;3.67;3.37;;;;;;;21.83;52.19;98981.25;1749759;80;21632;-65
2022/06/14 00:28:28;;;;;;;5.83;3.95;;;;;;;21.77;52.26;98989.40;1750695;80;28580;-70
2022/06/14 00:31:01;;;;;;;4.83;3.98;;;;;;;21.74;52.34;98988.39;1746259;80;21538;-65
2022/06/14 00:33:28;;;;;;;4.00;3.62;;;;;;;21.67;52.42;98988.14;1747155;80;21834;-65
2022/06/14 00:36:08;;;;;;;3.83;3.52;;;;;;;21.63;52.72;98984.61;1754094;80;21508;-66
2022/06/14 00:38:37;;;;;;;4.92;3.98;;;;;;;21.59;52.66;98984.06;1744826;80;20986;-65
2022/06/14 00:41:03;;;;;;;;;;;;;;;21.54;52.60;98977.81;1763262;80;21598;-65
2022/06/14 00:43:31;;;;;;;4.78;3.58;;;;;;;21.50;53.09;98978.28;1748874;80;20421;-65
2022/06/14 00:46:12;;;;;;;4.30;4.00;;;;;;;21.46;52.64;98974.23;1756029;80;22019;-66
2022/06/14 00:48:38;;;;;;;6.20;3.70;;;;;;;21.45;52.51;98968.03;1751802;80;21014;-66
2022/06/14 00:51:17;;;;;;;4.40;4.00;;;;;;;21.45;52.39;98969.87;1746095;80;21523;-66
2022/06/14 00:54:08;;;;;;;4.85;3.47;;;;;;;21.40;52.79;98971.64;1747479;80;21435;-66
2022/06/14 00:56:53;;;;;;;4.17;3.10;;;;;;;21.43;53.14;98967.81;1759201;80;21970;-66
2022/06/14 00:59:27;;;;;;;4.15;3.27;;;;;;;21.45;53.04;98965.35;1705625;82;21820;-66
2022/06/14 01:02:00;;;;;;;4.42;3.40;;;;;;;21.45;53.12;98963.19;1748060;80;21503;-65
2022/06/14 01:04:28;;;;;;;3.15;2.92;;;;;;;21.43;52.83;98963.80;1749915;80;21515;-66
2022/06/14 01:07:04;;;;;;;;;;;;;;;21.45;52.89;98965.86;1751929;80;21566;-66
2022/06/14 01:09:50;;;;;;;3.72;3.22;;;;;;;21.41;52.79;98965.28;1747141;80;20487;-66
2022/06/14 01:12:24;;;;;;;4.65;3.58;;;;;;;21.34;52.77;98965.06;1749758;80;21793;-66
2022/06/14 01:15:16;;;;;;;4.58;3.30;;;;;;;21.32;52.81;98962.17;1750114;80;21521;-66
2022/06/14 01:17:50;;;;;;;3.77;3.47;;;;;;;21.30;52.66;98965.50;1701301;82;21447;-67
2022/06/14 01:20:20;;;;;;;3.62;3.30;;;;;;;21.26;52.42;98959.61;1737681;80;21424;-67
2022/06/14 01:22:48;;;;;;;3.98;3.40;;;;;;;21.26;52.76;98957.44;1708639;81;21515;-66
2022/06/14 01:25:15;;;;;;;6.37;3.37;;;;;;;21.25;52.52;98962.43;1664929;84;21896;-65
2022/06/14 01:27:42;;;;;;;4.90;3.40;;;;;;;21.22;52.36;98958.23;1676567;84;21440;-65
2022/06/14 01:30:19;;;;;;;4.63;3.70;;;;;;;21.23;52.36;98963.94;1676640;84;21517;-65
2022/06/14 01:33:09;;;;;;;3.77;3.45;;;;;;;21.18;52.62;98956.36;1673479;83;22281;-65
2022/06/14 01:35:39;;;;;;;4.75;3.90;;;;;;;21.18;52.53;98962.20;1708897;82;21551;-64
2022/06/14 01:38:09;;;;;;;3.95;3.55;;;;;;;21.17;52.53;98960.04;1721731;81;21829;-65
2022/06/14 01:40:54;;;;;;;4.33;3.47;;;;;;;21.15;52.63;98959.35;1663688;85;21077;-64
2022/06/14 01:43:27;;;;;;;4.75;3.50;;;;;;;21.12;52.88;98960.98;1723558;82;21888;-64
2022/06/14 01:46:07;;;;;;;3.92;3.62;;;;;;;21.07;52.98;98953.89;1715718;82;21495;-64
2022/06/14 01:51:59;;;;;;;;;;;;;;;21.03;53.15;98947.67;1654034;85;21515;-65
2022/06/14 01:54:50;;;;;;;3.65;3.35;;;;;;;20.93;52.86;98939.72;1670152;84;21554;-64
2022/06/14 01:57:37;;;;;;;4.67;3.90;;;;;;;20.93;52.86;98939.72;1656039;84;21448;-65
2022/06/14 02:00:17;;;;;;;9.30;3.55;;;;;;;20.85;53.36;98940.46;1718621;82;21042;-65
2022/06/14 02:04:37;;;;;;;7.97;3.75;;;;;;;20.82;53.68;98941.25;1716523;82;20952;-65
2022/06/14 02:05:29;;;;;;;4.87;3.33;;;;;;;20.78;53.65;98945.55;1717647;82;21810;-64
2022/06/14 02:08:01;;;;;;;5.47;3.40;;;;;;;20.77;53.71;98938.50;1720806;82;20986;-65
2022/06/14 02:10:42;;;;;;;4.05;3.75;;;;;;;20.85;53.67;98940.94;1713063;81;21711;-65
2022/06/14 02:13:29;;;;;;;3.87;3.33;;;;;;;20.91;53.80;98941.70;1721175;81;21699;-65
2022/06/14 02:16:21;;;;;;;3.45;2.90;;;;;;;20.96;53.25;98940.27;1689510;83;21203;-65
2022/06/14 02:18:56;;;;;;;6.25;3.55;;;;;;;21.03;52.61;98938.32;1679719;84;21891;-64
2022/06/14 02:21:28;;;;;;;5.78;3.35;;;;;;;21.10;52.21;98938.91;1687654;82;21054;-65
2022/06/14 02:24:03;;;;;;;4.20;3.45;;;;;;;21.16;52.01;98938.80;1676409;82;21539;-65
2022/06/14 02:26:34;;;;;;;5.70;3.40;;;;;;;21.24;51.79;98936.20;1678981;84;21585;-65
2022/06/14 02:29:09;;;;;;;3.55;3.15;;;;;;;21.25;51.57;98939.23;1680286;84;21089;-65
2022/06/14 02:31:47;;;;;;;5.65;3.10;;;;;;;21.30;51.59;98944.11;1684659;84;21835;-65
2022/06/14 02:34:18;;;;;;;3.50;3.30;;;;;;;21.34;51.50;98939.67;1683771;84;21574;-65
2022/06/14 02:36:52;;;;;;;7.22;3.50;;;;;;;21.37;51.48;98942.02;1683942;82;21482;-65
2022/06/14 02:39:26;;;;;;;5.00;3.70;;;;;;;21.41;51.42;98941.72;1688349;84;21476;-66
2022/06/14 02:42:10;;;;;;;5.05;3.58;;;;;;;21.42;51.54;98942.05;1682528;84;21428;-65
2022/06/14 02:44:52;;;;;;;4.25;3.50;;;;;;;21.45;51.58;98938.61;1691293;82;21840;-65
2022/06/14 02:47:32;;;;;;;5.35;3.35;;;;;;;21.45;51.63;98939.12;1681140;84;21440;-64
2022/06/14 02:50:19;;;;;;;3.47;3.27;;;;;;;21.45;51.83;98938.61;1676626;84;21531;-66
2022/06/14 02:52:57;;;;;;;5.97;3.98;;;;;;;21.45;52.02;98941.28;1677115;83;26905;-66
2022/06/14 02:55:29;;;;;;;3.90;3.58;;;;;;;21.45;52.21;98936.44;1690656;83;20960;-67
2022/06/14 02:58:16;;;;;;;7.22;3.60;;;;;;;21.43;52.39;98929.04;1685297;84;21960;-66
2022/06/14 03:01:06;;;;;;;4.50;4.10;;;;;;;21.47;52.11;98920.58;1686142;84;21066;-58
2022/06/14 03:03:55;;;;;;;4.53;3.40;;;;;;;21.51;51.89;98917.10;1692570;82;21569;-58
2022/06/14 03:06:42;;;;;;;4.05;3.75;;;;;;;21.58;51.54;98919.01;1678577;84;21015;-59
2022/06/14 03:09:18;;;;;;;3.98;3.67;;;;;;;21.60;51.49;98921.53;1679959;83;21441;-58
2022/06/14 03:11:56;;;;;;;5.07;3.90;;;;;;;21.65;51.53;98923.26;1673528;83;21818;-58
2022/06/14 03:14:47;;;;;;;4.08;3.25;;;;;;;21.70;51.44;98924.98;1674939;84;21820;-58
2022/06/14 03:17:19;;;;;;;5.05;3.60;;;;;;;21.77;51.46;98926.52;1674724;83;21419;-58
2022/06/14 03:20:09;;;;;;;5.35;3.35;;;;;;;21.83;51.42;98924.59;1685200;83;21850;-58
2022/06/14 03:23:00;;;;;;;5.28;3.33;;;;;;;21.90;51.40;98925.63;1660531;84;21506;-59
2022/06/14 03:25:44;;;;;;;4.12;3.30;;;;;;;22.00;51.38;98927.37;1691118;83;21778;-59
2022/06/14 03:28:32;;;;;;;6.10;3.52;;;;;;;22.10;51.42;98920.93;1693672;83;21627;-59
2022/06/14 03:31:29;;;;;;;3.30;3.10;;;;;;;22.15;51.58;98922.64;1697632;83;21569;-59
2022/06/14 03:34:11;;;;;;;5.20;3.42;;;;;;;22.25;51.56;98933.27;1695096;83;21054;-59
2022/06/14 03:36:39;;;;;;;4.92;3.52;;;;;;;22.27;51.74;98950.52;1699116;83;21500;-59
2022/06/14 03:39:15;;;;;;;5.62;3.87;;;;;;;22.25;52.15;98960.52;1695797;83;21873;-58
2022/06/14 03:41:46;;;;;;;3.83;3.40;;;;;;;22.27;51.82;98958.05;1686831;83;21510;-59
2022/06/14 03:44:13;;;;;;;4.08;3.77;;;;;;;22.33;51.84;98965.95;1763529;80;21051;-58
2022/06/14 03:47:01;;;;;;;4.37;3.75;;;;;;;22.41;51.74;98955.28;1746647;80;20987;-58
2022/06/14 03:49:28;;;;;;;10.70;4.15;;;;;;;22.48;51.98;98964.37;1744341;80;20947;-58
2022/06/14 03:52:06;;;;;;;4.83;3.95;;;;;;;22.52;51.31;98967.06;1727750;80;21454;-58
2022/06/14 03:54:51;;;;;;;7.00;3.92;;;;;;;22.55;51.61;98961.91;1760017;80;21507;-58
2022/06/14 03:57:32;;;;;;;9.68;4.05;;;;;;;22.62;51.38;98966.11;1753127;80;22038;-58
2022/06/14 04:00:44;;;;;;;6.20;4.22;;;;;;;22.64;51.30;98972.16;1748666;80;21698;-58
2022/06/14 04:03:39;;;;;;;6.80;4.45;;;;;;;22.68;50.98;98980.23;1744398;80;21099;-58
2022/06/14 04:06:37;;;;;;;5.28;4.25;;;;;;;22.67;50.99;98980.71;1747873;80;21570;-58
2022/06/14 04:09:33;;;;;;;8.50;4.80;;;;;;;22.68;50.73;98983.75;1706231;82;21544;-59
2022/06/14 04:12:17;;;;;;;6.58;4.30;;;;;;;22.68;50.98;98995.80;1743606;80;21579;-59
2022/06/14 04:15:29;;;;;;;4.97;4.53;;;;;;;22.73;51.36;99014.93;1745693;80;21463;-59
2022/06/14 04:18:38;;;;;;;5.05;4.55;;;;;;;22.76;51.77;99021.80;1747473;80;21447;-59
2022/06/14 04:21:25;;;;;;;6.28;5.17;;;;;;;22.67;51.84;99028.11;1742153;80;21789;-59
2022/06/14 04:24:35;;;;;;;7.58;5.08;;;;;;;22.56;51.99;99027.86;1744174;80;21543;-59
2022/06/14 04:27:43;;;;;;;5.78;4.70;;;;;;;22.43;52.36;99023.42;1742708;80;21519;-59
2022/06/14 04:30:18;;;;;;;;;;;;;;;22.31;53.08;99051.80;1749067;80;21518;-64
2022/06/14 04:33:05;;;;;;;8.75;4.50;;;;;;;22.25;53.38;99060.45;1747738;80;20425;-60
2022/06/14 04:35:36;;;;;;;9.90;4.53;;;;;;;22.22;53.27;99047.33;1749834;80;21886;-59
2022/06/14 04:38:09;;;;;;;13.43;5.03;;;;;;;22.27;53.37;99057.63;1746122;80;21823;-60
2022/06/14 04:40:47;;;;;;;7.42;4.55;;;;;;;22.33;53.64;99065.86;1755679;80;21438;-59
2022/06/14 04:43:19;;;;;;;12.37;4.03;;;;;;;22.32;53.93;99078.92;1682291;82;21517;-60
2022/06/14 04:45:56;;;;;;;11.97;3.87;;;;;;;22.21;54.34;99055.52;1754574;80;21594;-60
2022/06/14 04:48:41;;;;;;;5.63;4.03;;;;;;;22.03;54.90;99068.42;1745761;80;21882;-59
2022/06/14 04:51:20;;;;;;;7.87;3.52;;;;;;;21.92;55.51;99072.66;1750631;80;21475;-59
2022/06/14 04:53:59;;;;;;;6.12;3.37;;;;;;;21.75;56.03;99078.34;1744374;80;21581;-60
2022/06/14 04:56:32;;;;;;;9.50;3.00;;;;;;;21.66;56.52;99080.11;1751929;80;21041;-60
2022/06/14 04:59:07;;;;;;;5.65;3.15;;;;;;;21.64;56.84;99083.91;1742232;80;21072;-59
2022/06/14 05:02:11;;;;;;;5.65;3.00;;;;;;;21.56;56.91;99078.80;1746397;80;21902;-60
2022/06/14 05:04:47;;;;;;;7.67;2.67;;;;;;;21.46;57.44;99088.72;1738324;80;21065;-60
2022/06/14 05:07:45;;;;;;;6.28;2.47;;;;;;;21.42;57.55;99115.39;1748119;80;21531;-60
2022/06/14 05:10:20;;;;;;;4.17;2.60;;;;;;;21.37;57.54;99100.27;1747905;80;21563;-60
2022/06/14 05:13:04;;;;;;;5.53;2.90;;;;;;;21.37;57.77;99118.99;1735775;80;21399;-61
2022/06/14 05:15:47;;;;;;;3.77;2.58;;;;;;;21.41;58.01;99119.04;1750972;80;21058;-60
2022/06/14 05:18:31;;;;;;;3.05;2.52;;;;;;;21.42;57.95;99119.88;1729603;80;21565;-60
2022/06/14 05:21:10;;;;;;;4.83;2.45;;;;;;;21.38;58.01;99121.52;1751420;80;21624;-59
2022/06/14 05:23:44;;;;;;;6.10;2.85;;;;;;;21.35;57.93;99137.02;1762739;80;21467;-60
2022/06/14 05:26:34;;;;;;;5.10;2.52;;;;;;;21.25;58.22;99142.41;1763115;80;21560;-60
2022/06/14 05:29:27;;;;;;;6.47;3.08;;;;;;;21.29;58.39;99152.31;1764188;80;21553;-60
2022/06/14 05:32:33;;;;;;;3.52;2.98;;;;;;;21.32;58.55;99160.03;1751453;80;21518;-58
2022/06/14 05:35:30;;;;;;;4.80;2.40;;;;;;;21.35;58.35;99147.21;1756700;80;21104;-58
2022/06/14 05:38:20;;;;;;;4.62;1.77;;;;;;;21.37;57.65;99146.56;1756297;80;21097;-60
2022/06/14 05:41:07;;;;;;;2.75;2.00;;;;;;;21.45;57.73;99172.60;1753974;80;21473;-60
2022/06/14 05:43:50;;;;;;;2.15;1.95;;;;;;;21.59;56.67;99161.94;1768208;80;21834;-59
2022/06/14 05:46:33;;;;;;;4.40;1.65;;;;;;;21.72;56.53;99170.45;1767874;80;21555;-58
2022/06/14 05:49:12;;;;;;;1.55;1.27;;;;;;;21.81;57.06;99179.91;1737985;80;21588;-60
2022/06/14 05:51:49;;;;;;;1.35;1.25;;;;;;;21.88;55.77;99190.37;1756097;80;21545;-60
2022/06/14 05:54:27;;;;;;;4.00;1.40;;;;;;;21.81;56.47;99202.66;1762969;80;20952;-59
2022/06/14 05:57:17;;;;;;;1.45;1.20;;;;;;;21.81;56.07;99204.83;1722729;80;22306;-59
2022/06/14 05:59:50;;;;;;;1.35;1.25;;;;;;;21.70;55.95;99217.92;1753218;80;21518;-59
2022/06/14 06:02:46;;;;;;;4.15;1.30;;;;;;;21.69;56.06;99218.06;1765401;80;21434;-58
2022/06/14 06:05:30;;;;;;;3.25;1.45;;;;;;;21.64;55.11;99217.15;1749324;80;21529;-58
2022/06/14 06:08:26;;;;;;;5.37;1.00;;;;;;;21.64;55.11;99217.15;1754761;80;21431;-58
2022/06/14 06:10:59;;;;;;;1.27;1.12;;;;;;;21.57;55.67;99212.06;1728300;80;21575;-58
2022/06/14 06:13:44;;;;;;;0.98;0.98;;;;;;;21.58;55.94;99216.41;1744270;80;21025;-58
2022/06/14 06:16:20;;;;;;;1.00;0.90;;;;;;;21.64;55.48;99220.33;1733819;80;21494;-59
2022/06/14 06:18:56;;;;;;;1.65;0.80;;;;;;;21.68;54.61;99220.38;1760062;80;21510;-60
2022/06/14 06:21:47;;;;;;;2.17;0.95;;;;;;;21.67;54.55;99234.76;1755927;80;21574;-58
2022/06/14 06:24:38;;;;;;;2.22;1.22;;;;;;;21.56;54.15;99252.66;1750838;80;21420;-58
2022/06/14 06:27:09;;;;;;;3.40;1.00;;;;;;;21.43;54.80;99267.31;1744560;80;21544;-58
2022/06/14 06:30:06;;;;;;;2.27;0.82;;;;;;;21.17;55.64;99266.58;1752171;80;21440;-58
2022/06/14 06:32:33;;;;;;;1.55;0.82;;;;;;;20.97;55.87;99266.60;1744069;80;21530;-61
2022/06/14 06:35:02;;;;;;;0.88;0.70;;;;;;;20.80;56.64;99266.81;1747351;80;21620;-58
2022/06/14 06:37:34;;;;;;;0.62;0.62;;;;;;;20.68;57.80;99276.43;1739156;80;21818;-57
2022/06/14 06:40:22;;;;;;;0.90;0.90;;;;;;;20.55;59.18;99292.22;1748381;80;21560;-59
2022/06/14 06:43:11;;;;;;;1.35;0.78;;;;;;;20.54;59.45;99287.84;1737389;80;21609;-59
2022/06/14 06:45:43;;;;;;;1.30;0.82;;;;;;;20.46;60.32;99302.38;1727647;80;21116;-59
2022/06/14 06:48:19;;;;;;;2.10;1.17;;;;;;;20.33;62.56;99301.79;1738958;80;21551;-60
2022/06/14 06:50:55;;;;;;;1.20;1.10;;;;;;;20.22;63.81;99301.40;1743005;80;21727;-59
2022/06/14 06:53:24;;;;;;;3.10;1.30;;;;;;;20.16;65.21;99316.63;1752995;80;21600;-59
2022/06/14 06:56:19;;;;;;;1.05;1.02;;;;;;;20.18;65.58;99320.84;1749304;80;21465;-61
2022/06/14 06:58:58;;;;;;;2.45;1.02;;;;;;;20.22;65.98;99327.59;1734038;80;21406;-61
2022/06/14 07:01:48;;;;;;;1.20;1.10;;;;;;;20.26;65.96;99324.66;1747250;80;21545;-59
2022/06/14 07:07:31;;;;;;;6.20;1.47;;;;;;;20.33;66.86;99317.31;1689373;82;21524;-61
2022/06/14 07:10:19;;;;;;;;;;;;;;;20.35;67.02;99333.20;1681467;84;21592;-60
2022/06/14 07:13:04;;;;;;;1.20;1.20;;;;;;;20.27;67.01;99339.22;1674289;83;20418;-59
2022/06/14 07:15:44;;;;;;;1.65;1.55;;;;;;;20.26;67.03;99352.19;1679728;82;21413;-60
2022/06/14 07:18:27;;;;;;;1.85;1.75;;;;;;;20.26;67.05;99348.69;1677059;83;21517;-63
2022/06/14 07:21:25;;;;;;;1.72;1.40;;;;;;;20.25;66.90;99350.98;1671866;82;21421;-60
2022/06/14 07:24:04;;;;;;;4.47;1.50;;;;;;;20.25;67.15;99354.98;1682034;83;21588;-60
2022/06/14 07:26:44;;;;;;;2.42;1.20;;;;;;;20.21;65.50;99355.28;1681690;82;21477;-60
2022/06/14 07:29:36;;;;;;;1.50;1.17;;;;;;;20.22;65.54;99347.61;1677772;84;21568;-60
2022/06/14 07:32:15;;;;;;;1.87;1.50;;;;;;;20.33;65.61;99341.84;1684549;82;21577;-60
2022/06/14 07:35:53;;;;;;;1.50;1.45;;;;;;;19.92;67.11;99349.80;1793950;79;23202;-59
2022/06/14 07:38:51;;;;;;;;;;;;;;;20.36;63.67;99349.09;1769857;80;21418;-59
2022/06/14 07:41:36;;;;;;;1.75;1.40;;;;;;;20.34;62.63;99357.72;1697404;83;21787;-60
2022/06/14 07:44:37;;;;;;;1.80;1.47;;;;;;;20.25;63.37;99369.20;1758916;80;21060;-60
2022/06/14 07:47:19;;;;;;;10.70;1.50;;;;;;;20.29;63.46;99373.30;1676798;84;21120;-61
2022/06/14 07:50:02;;;;;;;3.35;1.55;;;;;;;20.32;63.32;99384.18;1739152;80;21017;-61
2022/06/14 07:52:44;;;;;;;2.12;1.40;;;;;;;20.34;62.29;99384.89;1771433;79;21396;-60
2022/06/14 07:55:20;;;;;;;1.65;1.55;;;;;;;20.34;61.62;99391.56;1760191;80;21855;-61
2022/06/14 07:57:57;;;;;;;1.45;1.35;;;;;;;20.32;61.54;99400.20;1763850;79;20942;-60
2022/06/14 08:01:07;;;;;;;3.22;1.47;;;;;;;20.37;61.89;99402.82;1768227;80;21549;-60
2022/06/14 08:04:03;;;;;;;1.22;1.12;;;;;;;20.46;60.01;99401.18;1724120;81;21518;-59
2022/06/14 08:06:46;;;;;;;1.25;1.15;;;;;;;20.55;59.08;99396.37;1718094;81;21441;-60
2022/06/14 08:09:26;;;;;;;1.35;1.10;;;;;;;20.61;58.13;99400.35;1709569;82;21507;-59
2022/06/14 08:11:56;;;;;;;1.60;1.20;;;;;;;20.76;58.45;99399.48;1718825;82;21457;-61
2022/06/14 08:14:39;;;;;;;1.45;1.35;;;;;;;21.00;58.05;99391.94;1712805;82;21044;-61
2022/06/14 08:17:09;;;;;;;1.40;1.30;;;;;;;21.22;57.54;99391.31;1720599;82;21533;-60
2022/06/14 08:19:45;;;;;;;4.37;1.27;;;;;;;21.47;56.87;99394.44;1714299;82;21526;-60
2022/06/14 08:22:18;;;;;;;0.93;0.93;;;;;;;21.83;53.76;99391.52;1721055;82;21778;-60
2022/06/14 08:24:51;;;;;;;1.45;1.20;;;;;;;21.83;53.76;99391.52;1711056;82;21422;-60
2022/06/14 08:27:30;;;;;;;3.02;1.22;;;;;;;21.93;53.14;99404.38;1710523;82;21021;-61
2022/06/14 08:30:12;;;;;;;1.12;1.00;;;;;;;22.03;52.67;99403.01;1720403;82;21522;-60
2022/06/14 08:33:04;;;;;;;1.15;1.05;;;;;;;22.09;51.51;99402.42;1714349;82;21151;-63
2022/06/14 08:35:41;;;;;;;2.92;1.17;;;;;;;22.13;50.13;99396.28;1709887;82;21930;-61
2022/06/14 08:38:23;;;;;;;0.88;0.88;;;;;;;22.15;49.58;99415.25;1697273;83;21547;-61
2022/06/14 08:41:15;;;;;;;1.47;1.12;;;;;;;22.16;50.07;99425.45;1740524;80;21593;-59
2022/06/14 08:43:46;;;;;;;2.87;1.02;;;;;;;22.10;49.21;99420.19;1742854;80;21605;-61
2022/06/14 08:46:51;;;;;;;2.22;1.20;;;;;;;22.03;49.25;99415.05;1752634;80;21562;-61
2022/06/14 08:49:49;;;;;;;1.20;1.10;;;;;;;22.16;49.68;99414.74;1745562;80;21740;-59
2022/06/14 08:52:42;;;;;;;1.02;1.00;;;;;;;22.28;48.80;99423.47;1736799;80;21088;-61
2022/06/14 08:55:30;;;;;;;2.58;0.90;;;;;;;22.28;48.96;99425.67;1705982;82;21515;-61
2022/06/14 08:58:21;;;;;;;5.67;1.27;;;;;;;22.28;48.81;99414.96;1735699;80;21891;-61
2022/06/14 09:01:00;;;;;;;1.10;1.00;;;;;;;22.38;49.13;99416.26;1746863;80;21453;-60
2022/06/14 09:04:24;;;;;;;5.00;1.20;;;;;;;22.35;49.16;99420.05;1685794;80;21832;-60
2022/06/14 09:07:24;;;;;;;2.42;1.00;;;;;;;22.35;48.09;99419.22;1609398;87;21585;-61
2022/06/14 09:10:07;;;;;;;1.17;1.07;;;;;;;22.21;47.53;99417.84;1680393;84;21573;-60
2022/06/14 09:13:18;;;;;;;2.10;1.02;;;;;;;22.24;48.03;99424.22;1688631;84;21595;-62
2022/06/14 09:16:17;;;;;;;1.77;1.00;;;;;;;22.47;46.12;99431.92;1678545;82;21549;-61
2022/06/14 09:18:56;;;;;;;3.30;1.00;;;;;;;22.47;46.12;99431.92;1686663;84;22549;-61
2022/06/14 09:21:37;;;;;;;0.78;0.78;;;;;;;22.34;45.79;99431.77;1681387;83;21440;-61
2022/06/14 09:24:39;;;;;;;2.35;0.80;;;;;;;22.34;45.84;99440.31;1681787;83;21524;-61
2022/06/14 09:27:49;;;;;;;2.30;0.95;;;;;;;22.24;45.68;99438.11;1689104;83;21536;-59
2022/06/14 09:30:57;;;;;;;1.20;0.78;;;;;;;22.20;46.41;99436.72;1661970;85;21632;-60
2022/06/14 09:33:38;;;;;;;1.87;0.82;;;;;;;22.13;46.39;99429.75;1656759;84;23374;-61
2022/06/14 09:36:38;;;;;;;3.62;1.00;;;;;;;21.98;46.43;99441.41;1678940;84;21569;-62
2022/06/14 09:39:43;;;;;;;1.87;1.00;;;;;;;22.05;46.87;99437.16;1679536;84;21593;-63
2022/06/14 09:42:22;;;;;;;4.80;1.17;;;;;;;22.18;45.44;99434.18;1680004;84;20975;-61
2022/06/14 09:45:09;;;;;;;1.10;1.00;;;;;;;22.45;44.89;99424.53;1683043;82;21558;-60
2022/06/14 09:48:14;;;;;;;1.63;0.93;;;;;;;22.67;44.72;99417.95;1681682;84;21919;-60
2022/06/14 09:51:25;;;;;;;2.33;0.93;;;;;;;22.74;44.44;99421.73;1680222;82;21586;-60
2022/06/14 09:54:26;;;;;;;1.22;1.12;;;;;;;22.70;44.81;99433.24;1686327;82;21444;-60
2022/06/14 09:57:15;;;;;;;1.37;1.00;;;;;;;22.42;44.67;99446.27;1689363;82;21569;-61
2022/06/14 10:00:13;;;;;;;2.90;0.95;;;;;;;21.97;45.00;99457.12;1681474;82;21408;-61
2022/06/14 10:02:59;;;;;;;;;;;;;;;21.97;45.00;99457.12;1686535;82;21814;-61
2022/06/14 10:06:04;;;;;;;2.50;1.10;;;;;;;22.03;44.01;99445.00;1697467;82;20438;-60
2022/06/14 10:09:00;;;;;;;1.32;1.00;;;;;;;22.24;44.77;99441.62;1674565;83;21459;-60
2022/06/14 10:11:43;;;;;;;1.98;1.20;;;;;;;22.38;44.55;99446.19;1725913;82;21446;-61
2022/06/14 10:14:55;;;;;;;2.75;1.30;;;;;;;22.38;44.56;99444.38;1716751;82;20974;-60
2022/06/14 10:18:08;;;;;;;3.25;1.30;;;;;;;22.29;44.42;99459.48;1707371;82;21657;-60
2022/06/14 10:20:49;;;;;;;1.10;1.00;;;;;;;22.25;44.94;99455.41;1723063;82;21549;-60
2022/06/14 10:23:42;;;;;;;1.60;1.15;;;;;;;22.40;45.46;99454.45;1721451;82;21480;-61
2022/06/14 10:29:54;;;;;;;1.57;1.15;;;;;;;22.92;45.28;99461.49;1683431;83;21537;-60
2022/06/14 10:33:01;;;;;;;1.60;1.10;;;;;;;23.02;44.58;99453.39;1651418;85;21650;-61
2022/06/14 10:35:49;;;;;;;1.20;1.10;;;;;;;22.96;44.05;99454.47;1715957;82;20974;-60
2022/06/14 10:38:52;;;;;;;;;;;;;;;22.86;44.20;99446.48;1714470;82;21470;-60
2022/06/14 10:41:39;;;;;;;1.30;1.20;;;;;;;22.92;44.36;99444.06;1716730;82;20576;-62
2022/06/14 10:44:32;;;;;;;2.10;1.17;;;;;;;23.13;43.71;99444.30;1717005;82;21002;-60
2022/06/14 10:47:28;;;;;;;2.35;1.05;;;;;;;23.25;42.64;99433.72;1719869;82;21841;-61
2022/06/14 10:50:00;;;;;;;;;;;;;;;23.18;41.94;99438.50;1721781;82;21581;-60
2022/06/14 10:52:56;;;;;;;4.83;1.20;;;;;;;23.12;42.56;99438.10;1714434;82;20176;-60
2022/06/14 10:55:42;;;;;;;3.30;1.12;;;;;;;23.02;43.24;99428.39;1718974;82;21534;-60
2022/06/14 10:58:49;;;;;;;1.45;1.07;;;;;;;23.02;43.24;99428.39;1678081;84;21501;-59
2022/06/14 11:01:58;;;;;;;3.02;1.17;;;;;;;23.06;42.95;99429.33;1714040;82;21554;-59
2022/06/14 11:04:42;;;;;;;1.42;1.10;;;;;;;23.28;43.32;99419.14;1710092;82;21054;-59
2022/06/14 11:07:26;;;;;;;3.10;1.42;;;;;;;23.43;41.55;99417.64;1721782;82;21058;-60
2022/06/14 11:10:29;;;;;;;3.47;1.30;;;;;;;23.44;42.14;99411.26;1712473;82;21578;-60
2022/06/14 11:13:12;;;;;;;3.92;1.40;;;;;;;23.44;42.14;99411.26;1718903;82;21594;-61
2022/06/14 11:16:03;;;;;;;4.00;1.40;;;;;;;23.60;42.53;99414.59;1712587;82;21522;-60
2022/06/14 11:18:44;;;;;;;1.07;1.07;;;;;;;23.60;39.84;99413.73;1713778;82;21510;-61
2022/06/14 11:21:17;;;;;;;1.70;1.20;;;;;;;23.69;40.45;99410.12;1717622;82;21097;-60
2022/06/14 11:24:25;;;;;;;1.98;1.30;;;;;;;23.97;40.64;99407.34;1717854;82;21054;-59
2022/06/14 11:27:12;;;;;;;2.90;1.02;;;;;;;24.15;39.87;99399.21;1715516;82;21514;-59
2022/06/14 11:29:56;;;;;;;1.30;1.00;;;;;;;24.15;39.62;99402.77;1707380;82;21830;-59
2022/06/14 11:32:58;;;;;;;3.37;1.37;;;;;;;24.38;36.18;99414.30;1720324;82;21522;-59
2022/06/14 11:36:09;;;;;;;3.15;1.27;;;;;;;24.38;36.18;99414.30;1713658;82;21559;-60
2022/06/14 11:39:04;;;;;;;1.90;1.25;;;;;;;24.40;36.03;99386.77;1721862;82;20940;-57
2022/06/14 11:41:36;;;;;;;1.72;1.05;;;;;;;24.70;36.81;99395.33;1713201;82;20988;-57
2022/06/14 11:44:14;;;;;;;1.60;1.10;;;;;;;24.82;37.62;99397.53;1725618;82;21878;-59
2022/06/14 11:46:46;;;;;;;1.30;1.17;;;;;;;24.82;37.62;99397.53;1722991;82;21416;-57
2022/06/14 11:49:24;;;;;;;4.22;1.22;;;;;;;25.06;36.74;99395.41;1716174;82;21565;-57
2022/06/14 11:52:26;;;;;;;2.60;1.10;;;;;;;25.23;36.85;99386.06;1710745;81;21502;-59
2022/06/14 11:55:16;;;;;;;1.45;1.30;;;;;;;25.30;34.62;99387.09;1716461;82;21581;-57
2022/06/14 11:58:06;;;;;;;2.65;1.30;;;;;;;25.34;32.99;99401.05;1710356;82;22010;-58
2022/06/14 12:00:43;;;;;;;2.42;1.40;;;;;;;25.34;32.99;99401.05;1721985;81;21431;-59
2022/06/14 12:03:24;;;;;;;1.45;1.35;;;;;;;25.28;34.36;99394.48;1714627;82;21444;-59
2022/06/14 12:06:05;;;;;;;3.55;1.60;;;;;;;25.42;34.14;99407.77;1709977;82;21498;-58
2022/06/14 12:08:58;;;;;;;2.00;1.50;;;;;;;25.19;33.02;99398.14;1684455;84;22033;-58
2022/06/14 12:11:27;;;;;;;3.08;1.65;;;;;;;25.05;33.82;99401.81;1690868;84;21498;-58
2022/06/14 12:14:15;;;;;;;4.25;1.22;;;;;;;24.97;33.57;99386.98;1683675;82;21707;-58
2022/06/14 12:16:44;;;;;;;2.15;1.60;;;;;;;24.89;34.08;99398.24;1685786;84;21435;-59
2022/06/14 12:19:22;;;;;;;1.30;1.22;;;;;;;24.92;34.62;99394.73;1658314;84;20998;-58
2022/06/14 12:22:28;;;;;;;2.10;1.42;;;;;;;25.05;34.50;99387.50;1679599;82;21671;-58
2022/06/14 12:28:27;;;;;;;;;;;;;;;25.06;33.17;99393.23;1688426;82;21629;-59
2022/06/14 12:30:59;;;;;;;3.62;1.70;;;;;;;24.90;33.12;99394.02;1680927;83;20438;-60
2022/06/14 12:33:44;;;;;;;2.72;1.17;;;;;;;24.95;32.95;99386.83;1679995;82;21034;-59
2022/06/14 12:37:01;;;;;;;1.50;1.40;;;;;;;25.15;33.44;99396.28;1681885;82;21506;-59
2022/06/14 12:39:37;;;;;;;1.65;1.27;;;;;;;25.29;33.23;99391.28;1667047;82;21860;-59
2022/06/14 12:42:26;;;;;;;2.20;1.47;;;;;;;25.20;32.79;99399.80;1659124;82;21560;-59
2022/06/14 12:45:04;;;;;;;1.98;1.70;;;;;;;25.08;32.56;99392.56;1680261;84;21438;-59
2022/06/14 12:48:00;;;;;;;4.42;1.75;;;;;;;25.08;32.56;99392.56;1677470;84;21570;-59
2022/06/14 12:50:37;;;;;;;2.12;1.67;;;;;;;25.06;33.11;99396.76;1667185;84;21014;-58
2022/06/14 12:53:37;;;;;;;2.55;1.32;;;;;;;25.10;33.19;99391.06;1683006;83;21799;-59
2022/06/14 12:56:20;;;;;;;3.83;1.20;;;;;;;25.10;33.27;99395.92;1683398;83;21636;-60
2022/06/14 12:59:31;;;;;;;3.10;1.80;;;;;;;25.07;33.06;99404.31;1685815;84;21718;-63
2022/06/14 13:02:10;;;;;;;4.83;1.55;;;;;;;25.07;33.06;99404.31;1664423;84;21567;-59
2022/06/14 13:04:51;;;;;;;2.20;1.55;;;;;;;25.03;32.93;99405.66;1661425;84;21570;-62
2022/06/14 13:07:59;;;;;;;3.37;1.42;;;;;;;25.34;32.61;99393.81;1703624;82;21892;-60
2022/06/14 13:10:55;;;;;;;4.78;1.55;;;;;;;25.34;32.61;99393.81;1708421;82;21526;-62